Time;durP1;ratioP1;P1;durP2;ratioP2;P2;SDS_P1;SDS_P2;PMS_P1;PMS_P2;Temp;Humidity;BMP_temperature;BMP_pressure;BME280_temperature;BME280_humidity;BME280_pressure;Samples;Min_cycle;Max_cycle;Signal;HPM_P1;HPM_P2
2022/06/25 00:01:06;;;;;;;12.07;5.50;;;;;;;19.72;63.66;100156.89;123679;1099;104429;-78
2022/06/25 00:03:40;;;;;;;9.03;5.90;;;;;;;19.66;63.90;100159.59;123311;1099;104252;-80
2022/06/25 00:06:14;;;;;;;9.93;5.90;;;;;;;19.60;64.23;100148.98;123661;1098;104376;-79
2022/06/25 00:08:45;;;;;;;;;;;;;;;19.53;63.59;100154.35;123733;1099;104290;-80
2022/06/25 00:14:13;;;;;;;11.85;6.30;;;;;;;19.42;64.00;100150.02;123577;1099;105572;-79
2022/06/25 00:16:46;;;;;;;13.67;6.30;;;;;;;19.36;64.58;100146.47;123850;1099;104523;-79
2022/06/25 00:19:18;;;;;;;12.57;6.73;;;;;;;19.30;64.76;100141.19;123497;1099;104194;-77
2022/06/25 00:21:51;;;;;;;15.57;7.20;;;;;;;19.23;64.66;100150.11;123788;1099;104233;-79
2022/06/25 00:24:24;;;;;;;12.00;6.70;;;;;;;19.16;64.79;100143.05;123573;1099;104313;-79
2022/06/25 00:26:58;;;;;;;11.35;6.55;;;;;;;19.09;65.16;100146.62;123614;1099;104306;-79
2022/06/25 00:29:30;;;;;;;13.23;6.53;;;;;;;19.00;65.42;100151.09;123943;1098;104216;-78
2022/06/25 00:32:02;;;;;;;10.40;6.37;;;;;;;18.95;65.31;100144.92;123735;1099;104277;-78
2022/06/25 00:34:33;;;;;;;14.40;6.87;;;;;;;18.87;65.64;100146.73;123700;1099;104272;-78
2022/06/25 00:37:07;;;;;;;9.03;5.67;;;;;;;18.80;65.62;100152.92;123655;1099;104219;-78
2022/06/25 00:39:39;;;;;;;10.17;6.20;;;;;;;18.77;65.91;100151.15;123495;1099;104306;-79
2022/06/25 00:42:16;;;;;;;11.50;5.90;;;;;;;18.71;66.00;100144.98;123542;1098;104313;-78
2022/06/25 00:44:52;;;;;;;11.83;6.20;;;;;;;18.66;66.25;100148.53;123647;1099;104351;-78
2022/06/25 00:47:24;;;;;;;14.37;6.50;;;;;;;18.59;66.72;100154.77;123693;1099;104194;-79
2022/06/25 00:49:57;;;;;;;13.40;6.30;;;;;;;18.52;67.17;100155.66;123743;1099;104347;-78
2022/06/25 00:52:32;;;;;;;11.73;6.47;;;;;;;18.44;67.36;100150.36;123526;1099;104399;-78
2022/06/25 00:55:10;;;;;;;12.27;6.33;;;;;;;18.39;67.68;100161.91;123523;1099;104195;-79
2022/06/25 00:57:45;;;;;;;11.20;6.40;;;;;;;18.33;67.83;100155.69;123518;1099;104329;-78
2022/06/25 01:00:20;;;;;;;12.47;6.33;;;;;;;18.27;67.56;100149.52;123990;1098;104261;-79
2022/06/25 01:02:52;;;;;;;12.63;6.43;;;;;;;18.23;67.71;100150.39;123641;1099;104258;-78
2022/06/25 01:05:24;;;;;;;11.80;6.43;;;;;;;18.21;67.86;100154.83;123572;1098;104230;-77
2022/06/25 01:07:55;;;;;;;15.77;6.50;;;;;;;18.17;68.11;100156.62;123608;1099;104320;-78
2022/06/25 01:10:27;;;;;;;14.17;6.40;;;;;;;18.13;68.33;100158.37;124018;1099;102279;-79
2022/06/25 01:13:00;;;;;;;12.10;6.63;;;;;;;18.10;67.87;100154.84;123915;1099;104220;-79
2022/06/25 01:15:33;;;;;;;12.53;6.63;;;;;;;18.05;68.15;100154.84;123790;1099;104283;-78
2022/06/25 01:18:07;;;;;;;12.27;6.40;;;;;;;18.02;68.65;100153.97;123501;1099;104328;-79
2022/06/25 01:20:42;;;;;;;14.77;6.63;;;;;;;17.98;68.33;100146.88;123545;1099;104680;-78
2022/06/25 01:23:15;;;;;;;13.75;5.95;;;;;;;17.94;68.50;100140.69;123634;1099;104387;-79
2022/06/25 01:25:49;;;;;;;13.53;6.20;;;;;;;17.93;68.54;100145.09;123792;1099;104460;-78
2022/06/25 01:28:21;;;;;;;13.50;6.50;;;;;;;17.91;68.76;100146.00;123605;1099;104239;-78
2022/06/25 01:30:53;;;;;;;12.57;6.37;;;;;;;17.88;69.47;100146.88;123456;1099;104408;-78
2022/06/25 01:33:25;;;;;;;11.57;6.33;;;;;;;17.86;69.23;100153.06;123523;1099;104264;-78
2022/06/25 01:35:57;;;;;;;12.47;6.07;;;;;;;17.83;69.70;100147.75;123511;1099;104284;-79
2022/06/25 01:38:32;;;;;;;14.67;6.70;;;;;;;17.82;69.55;100149.49;123402;1099;104417;-79
2022/06/25 01:41:08;;;;;;;11.50;6.57;;;;;;;17.81;69.43;100145.09;123274;1099;104410;-79
2022/06/25 01:43:40;;;;;;;11.08;6.42;;;;;;;17.81;69.68;100152.14;123564;1099;104466;-77
2022/06/25 01:46:12;;;;;;;14.17;6.60;;;;;;;17.78;69.20;100150.39;123614;1098;104274;-78
2022/06/25 01:48:45;;;;;;;12.10;6.47;;;;;;;17.76;69.71;100149.48;123557;1099;104310;-78
2022/06/25 01:51:17;;;;;;;12.30;6.57;;;;;;;17.75;70.23;100148.61;123507;1099;104333;-78
2022/06/25 01:53:51;;;;;;;10.57;6.23;;;;;;;17.73;69.90;100146.83;123552;1099;104275;-78
2022/06/25 01:56:23;;;;;;;13.07;6.80;;;;;;;17.71;70.29;100145.95;123505;1099;104341;-79
2022/06/25 01:58:55;;;;;;;12.40;6.97;;;;;;;17.70;69.98;100141.52;123515;1099;104462;-78
2022/06/25 02:01:29;;;;;;;11.30;6.50;;;;;;;17.70;70.38;100141.52;123584;1099;104262;-78
2022/06/25 02:04:02;;;;;;;11.45;6.35;;;;;;;17.69;70.16;100140.65;123558;1099;104261;-77
2022/06/25 02:06:35;;;;;;;12.93;6.47;;;;;;;17.69;70.54;100139.77;123526;1099;104315;-78
2022/06/25 02:09:07;;;;;;;14.70;7.37;;;;;;;17.70;70.58;100141.52;123900;1099;104214;-79
2022/06/25 02:11:40;;;;;;;12.13;6.80;;;;;;;17.70;70.99;100145.08;123796;1099;104214;-78
2022/06/25 02:14:12;;;;;;;10.97;6.10;;;;;;;17.68;70.61;100144.17;123445;1099;104287;-78
2022/06/25 02:16:44;;;;;;;11.67;6.53;;;;;;;17.68;70.56;100148.61;123702;1099;104345;-79
2022/06/25 02:19:16;;;;;;;12.63;6.63;;;;;;;17.66;70.30;100148.60;124348;1099;104210;-79
2022/06/25 02:21:48;;;;;;;12.97;6.90;;;;;;;17.66;70.56;100156.56;124749;1099;104325;-81
2022/06/25 02:24:24;;;;;;;15.13;6.93;;;;;;;17.67;71.02;100149.48;124428;1099;104297;-79
2022/06/25 02:26:56;;;;;;;12.63;6.50;;;;;;;17.66;70.47;100147.73;123942;1099;104291;-79
2022/06/25 02:29:31;;;;;;;12.43;6.70;;;;;;;17.65;70.69;100153.91;123948;1098;104164;-79
2022/06/25 02:32:03;;;;;;;12.77;7.20;;;;;;;17.65;70.48;100153.91;123857;1098;104290;-79
2022/06/25 02:34:35;;;;;;;14.90;6.80;;;;;;;17.61;70.67;100159.21;123596;1099;104235;-79
2022/06/25 02:37:09;;;;;;;14.23;6.80;;;;;;;17.59;70.87;100160.98;124027;1099;104317;-78
2022/06/25 02:39:43;;;;;;;11.70;6.90;;;;;;;17.57;71.03;100161.86;123290;1099;104267;-78
2022/06/25 02:42:16;;;;;;;14.28;7.03;;;;;;;17.56;70.70;100165.38;123592;1099;104297;-78
2022/06/25 02:44:49;;;;;;;12.17;6.43;;;;;;;17.53;71.04;100171.59;123260;1099;104312;-78
2022/06/25 02:47:20;;;;;;;13.80;6.80;;;;;;;17.51;71.27;100161.84;123437;1099;104357;-79
2022/06/25 02:50:12;;;;;;;13.43;7.03;;;;;;;17.49;71.03;100167.14;123517;1098;104333;-78
2022/06/25 02:52:44;;;;;;;14.00;7.20;;;;;;;17.51;71.34;100162.72;123494;1099;104313;-78
2022/06/25 02:58:54;;;;;;;14.40;7.00;;;;;;;17.49;71.31;100172.45;123437;1099;104330;-79
2022/06/25 03:01:01;;;;;;;13.60;6.70;;;;;;;17.47;71.88;100176.88;123417;1099;108671;-77
2022/06/25 03:03:33;;;;;;;14.77;7.53;;;;;;;17.49;71.66;100190.14;123536;1099;104261;-78
2022/06/25 03:06:04;;;;;;;14.97;6.90;;;;;;;17.49;71.92;100182.19;123669;1099;104345;-79
2022/06/25 03:08:37;;;;;;;12.47;6.60;;;;;;;17.50;71.74;100198.11;123477;1099;104449;-79
2022/06/25 03:11:08;;;;;;;14.65;7.10;;;;;;;17.52;71.82;100190.16;123498;1099;104372;-78
2022/06/25 03:13:40;;;;;;;11.90;5.93;;;;;;;17.55;71.77;100196.34;123464;1099;104363;-79
2022/06/25 03:16:13;;;;;;;12.50;6.40;;;;;;;17.61;71.76;100196.35;123535;1098;104261;-78
2022/06/25 03:18:45;;;;;;;12.60;6.78;;;;;;;17.69;71.95;100204.33;123543;1099;104253;-77
2022/06/25 03:21:49;;;;;;;11.33;6.30;;;;;;;17.74;72.09;100207.87;123382;1099;104336;-78
2022/06/25 03:24:20;;;;;;;11.23;6.50;;;;;;;17.78;71.90;100208.78;123379;1099;104438;-79
2022/06/25 03:26:53;;;;;;;12.83;6.63;;;;;;;17.82;71.69;100209.66;123519;1099;104373;-78
2022/06/25 03:29:24;;;;;;;11.43;6.30;;;;;;;17.86;72.07;100208.79;123573;1099;104389;-78
2022/06/25 03:31:56;;;;;;;11.03;6.33;;;;;;;17.87;71.64;100208.80;123438;1099;104373;-78
2022/06/25 03:34:46;;;;;;;13.00;6.53;;;;;;;17.90;72.00;100208.83;123543;1099;104267;-79
2022/06/25 03:37:18;;;;;;;11.63;6.00;;;;;;;17.92;71.96;100214.11;123511;1099;104682;-79
2022/06/25 03:40:00;;;;;;;12.03;6.43;;;;;;;17.96;71.91;100219.42;123458;1099;104476;-79
2022/06/25 03:42:35;;;;;;;13.60;6.70;;;;;;;18.03;71.77;100220.34;123491;1099;104421;-78
2022/06/25 03:45:11;;;;;;;10.20;6.00;;;;;;;18.08;71.85;100226.52;123464;1099;104460;-79
2022/06/25 03:47:50;;;;;;;11.50;6.20;;;;;;;18.15;72.11;100224.75;123449;1102;104198;-78
2022/06/25 03:50:23;;;;;;;11.50;5.97;;;;;;;18.20;71.82;100219.44;123377;1102;104408;-79
2022/06/25 03:52:55;;;;;;;11.05;6.12;;;;;;;18.25;71.88;100220.34;123184;1102;104297;-79
2022/06/25 03:55:26;;;;;;;11.05;6.15;;;;;;;18.30;71.78;100218.56;123216;1102;104584;-78
2022/06/25 03:57:58;;;;;;;11.37;6.37;;;;;;;18.35;71.85;100221.22;123231;1102;104447;-78
2022/06/25 04:00:34;;;;;;;12.53;6.50;;;;;;;18.39;71.77;100223.00;123220;1102;104447;-80
2022/06/25 04:03:09;;;;;;;12.13;6.80;;;;;;;18.45;71.77;100228.27;123297;1102;104427;-79
2022/06/25 04:05:53;;;;;;;11.43;6.43;;;;;;;18.53;71.41;100228.27;123188;1102;104457;-77
2022/06/25 04:08:41;;;;;;;12.17;6.67;;;;;;;18.62;71.74;100231.82;123237;1102;104447;-78
2022/06/25 04:11:14;;;;;;;13.25;6.67;;;;;;;18.69;71.76;100233.56;123274;1102;104376;-78
2022/06/25 04:13:49;;;;;;;13.03;6.23;;;;;;;18.78;71.93;100234.45;123240;1099;104780;-78
2022/06/25 04:16:20;;;;;;;12.93;6.60;;;;;;;18.86;71.80;100236.22;123242;1099;104425;-79
2022/06/25 04:18:52;;;;;;;13.53;6.67;;;;;;;18.98;71.75;100245.95;123205;1099;104463;-78
2022/06/25 04:21:26;;;;;;;14.80;6.63;;;;;;;19.09;71.49;100242.34;123399;1102;104316;-78
2022/06/25 04:23:58;;;;;;;12.07;6.43;;;;;;;19.17;71.27;100245.89;123396;1101;104540;-77
2022/06/25 04:26:33;;;;;;;14.50;6.43;;;;;;;19.24;71.68;100247.62;123599;1099;104335;-78
2022/06/25 04:29:08;;;;;;;15.33;7.10;;;;;;;19.33;70.97;100258.22;123721;1099;104352;-78
2022/06/25 04:31:44;;;;;;;15.43;7.33;;;;;;;19.39;71.27;100257.33;123646;1099;105457;-76
2022/06/25 04:34:41;;;;;;;13.33;7.03;;;;;;;19.43;71.22;100258.19;123469;1099;104305;-78
2022/06/25 04:37:13;;;;;;;14.07;7.13;;;;;;;19.48;70.29;100259.07;123608;1099;104261;-78
2022/06/25 04:39:44;;;;;;;17.33;7.13;;;;;;;19.54;70.51;100259.92;123564;1099;104409;-78
2022/06/25 04:42:16;;;;;;;16.83;7.37;;;;;;;19.61;70.39;100257.22;123586;1099;104364;-78
2022/06/25 04:44:48;;;;;;;13.73;6.50;;;;;;;19.68;70.15;100267.83;123556;1099;104341;-78
2022/06/25 04:47:20;;;;;;;11.93;6.87;;;;;;;19.74;70.94;100261.56;123638;1099;104306;-78
2022/06/25 04:50:00;;;;;;;14.85;6.75;;;;;;;19.78;70.35;100265.16;123616;1099;104317;-78
2022/06/25 04:52:31;;;;;;;12.07;6.50;;;;;;;19.81;70.37;100259.81;123618;1098;104434;-79
2022/06/25 04:55:03;;;;;;;12.53;6.10;;;;;;;19.86;70.39;100265.98;123625;1098;104249;-79
2022/06/25 04:57:34;;;;;;;12.70;6.30;;;;;;;19.91;69.92;100261.50;123514;1099;104297;-78
2022/06/25 05:00:29;;;;;;;15.07;7.07;;;;;;;19.98;69.84;100260.58;123557;1099;104514;-78
2022/06/25 05:03:00;;;;;;;15.30;6.70;;;;;;;20.10;68.98;100256.92;123512;1099;104318;-78
2022/06/25 05:05:32;;;;;;;14.93;5.93;;;;;;;20.19;68.95;100263.98;123574;1099;104747;-79
2022/06/25 05:08:06;;;;;;;12.05;5.75;;;;;;;20.27;69.44;100267.45;123551;1099;104213;-78
2022/06/25 05:10:37;;;;;;;10.60;5.77;;;;;;;20.39;68.92;100262.03;123727;1099;104469;-77
2022/06/25 05:13:15;;;;;;;11.67;5.80;;;;;;;20.49;68.38;100257.53;123484;1099;104437;-77
2022/06/25 05:15:49;;;;;;;10.50;5.40;;;;;;;20.56;68.71;100258.34;123516;1099;104258;-78
2022/06/25 05:18:22;;;;;;;10.47;5.93;;;;;;;20.62;68.04;100260.95;123568;1099;104396;-77
2022/06/25 05:20:53;;;;;;;10.37;6.00;;;;;;;20.65;68.10;100259.17;123539;1099;104309;-78
2022/06/25 05:23:25;;;;;;;11.23;5.77;;;;;;;20.74;68.10;100263.55;123502;1099;104428;-78
2022/06/25 05:25:56;;;;;;;9.93;5.37;;;;;;;20.82;67.70;100261.67;123502;1098;104335;-78
2022/06/25 05:28:28;;;;;;;11.93;5.67;;;;;;;20.90;66.57;100263.39;123525;1099;104303;-77
2022/06/25 05:31:00;;;;;;;14.50;5.90;;;;;;;20.95;67.30;100258.88;123508;1099;104347;-78
2022/06/25 05:33:31;;;;;;;10.30;5.77;;;;;;;20.99;66.92;100256.16;123528;1098;104232;-78
2022/06/25 05:36:03;;;;;;;11.90;5.37;;;;;;;21.00;66.68;100257.03;123476;1099;104422;-78
2022/06/25 05:38:34;;;;;;;13.23;5.60;;;;;;;20.99;66.60;100261.50;123536;1099;104367;-77
2022/06/25 05:41:08;;;;;;;12.00;5.47;;;;;;;20.94;66.31;100259.77;123491;1099;104243;-78
2022/06/25 05:43:41;;;;;;;11.10;5.90;;;;;;;20.95;66.31;100269.55;123527;1099;104303;-78
2022/06/25 05:46:12;;;;;;;11.93;5.80;;;;;;;21.00;66.34;100270.38;123482;1099;104213;-78
2022/06/25 05:48:44;;;;;;;10.30;5.10;;;;;;;20.99;66.33;100260.63;123428;1099;104396;-79
2022/06/25 05:51:15;;;;;;;10.75;5.75;;;;;;;20.97;65.98;100259.73;123529;1099;104229;-76
2022/06/25 05:53:46;;;;;;;14.27;5.60;;;;;;;20.96;65.85;100264.20;123587;1099;104185;-77
2022/06/25 05:56:18;;;;;;;10.37;5.40;;;;;;;20.98;65.84;100253.52;123937;1099;104236;-78
2022/06/25 05:58:49;;;;;;;10.90;5.73;;;;;;;21.06;65.28;100258.77;123696;1098;104310;-79
2022/06/25 06:01:21;;;;;;;11.67;5.83;;;;;;;21.18;64.99;100259.49;124036;1098;104424;-77
2022/06/25 06:03:52;;;;;;;9.57;5.27;;;;;;;21.30;65.02;100265.58;123884;1099;104252;-77
2022/06/25 06:06:24;;;;;;;10.60;5.70;;;;;;;21.44;65.43;100260.98;123839;1099;104239;-77
2022/06/25 06:08:55;;;;;;;8.80;5.73;;;;;;;21.57;65.38;100255.52;123922;1099;104389;-76
2022/06/25 06:11:28;;;;;;;13.13;5.87;;;;;;;21.65;64.29;100259.83;123983;1098;104322;-77
2022/06/25 06:14:06;;;;;;;12.77;5.90;;;;;;;21.72;64.59;100260.61;123910;1098;104382;-76
2022/06/25 06:16:39;;;;;;;11.90;5.60;;;;;;;21.77;64.22;100264.13;123987;1099;104712;-78
2022/06/25 06:19:10;;;;;;;11.80;6.05;;;;;;;21.78;64.11;100267.66;123982;1099;104261;-77
2022/06/25 06:21:42;;;;;;;10.90;5.97;;;;;;;21.84;64.35;100265.78;123827;1098;104286;-78
2022/06/25 06:24:14;;;;;;;10.00;5.10;;;;;;;21.91;63.48;100269.27;123755;1099;104297;-78
2022/06/25 06:26:46;;;;;;;8.83;5.30;;;;;;;22.02;63.19;100266.44;123678;1099;104645;-77
2022/06/25 06:29:18;;;;;;;14.47;6.17;;;;;;;22.14;63.39;100260.00;123690;1099;104351;-77
2022/06/25 06:31:49;;;;;;;11.07;5.17;;;;;;;22.23;63.09;100270.55;123659;1099;104335;-77
2022/06/25 06:34:21;;;;;;;11.30;5.53;;;;;;;22.27;62.68;100274.95;123860;1099;104265;-77
2022/06/25 06:36:52;;;;;;;14.90;5.67;;;;;;;22.33;63.35;100265.96;123789;1099;104802;-77
2022/06/25 06:39:26;;;;;;;12.83;5.93;;;;;;;22.42;62.74;100272.06;123725;1099;104345;-77
2022/06/25 06:41:56;;;;;;;;;;;;;;;22.43;61.21;100272.93;123986;1099;104363;-78
2022/06/25 06:44:27;;;;;;;12.80;5.77;;;;;;;22.42;61.38;100268.48;123953;1099;104233;-77
2022/06/25 06:46:59;;;;;;;9.77;5.40;;;;;;;22.44;61.12;100272.03;123630;1099;104368;-78
2022/06/25 06:49:31;;;;;;;12.23;6.30;;;;;;;22.40;61.37;100270.31;123868;1098;104217;-76
2022/06/25 06:52:03;;;;;;;11.53;5.93;;;;;;;22.39;60.69;100268.53;123954;1098;104246;-78
2022/06/25 06:54:34;;;;;;;11.80;5.97;;;;;;;22.41;61.49;100269.41;123919;1099;104267;-78
2022/06/25 06:57:06;;;;;;;16.73;5.80;;;;;;;22.52;61.19;100267.44;123942;1099;104239;-77
2022/06/25 06:59:38;;;;;;;13.67;5.90;;;;;;;22.65;61.24;100269.89;123778;1098;104216;-77
2022/06/25 07:02:10;;;;;;;10.40;5.50;;;;;;;22.80;60.64;100274.97;123915;1099;104303;-77
2022/06/25 07:04:41;;;;;;;11.73;6.10;;;;;;;23.04;60.65;100275.41;123766;1099;104518;-76
2022/06/25 07:07:13;;;;;;;12.90;6.13;;;;;;;23.14;59.63;100269.89;123723;1098;104338;-78
2022/06/25 07:09:44;;;;;;;9.20;5.65;;;;;;;23.29;59.45;100274.03;123818;1099;104456;-77
2022/06/25 07:12:16;;;;;;;9.37;5.10;;;;;;;23.52;59.40;100272.68;123736;1099;104184;-79
2022/06/25 07:14:47;;;;;;;11.47;5.83;;;;;;;23.66;58.91;100270.58;123803;1098;104331;-79
2022/06/25 07:17:19;;;;;;;9.40;5.37;;;;;;;23.90;59.21;100268.29;124248;1099;104245;-79
2022/06/25 07:19:52;;;;;;;10.03;5.53;;;;;;;24.11;58.90;100274.96;123790;1099;104271;-78
2022/06/25 07:22:23;;;;;;;12.35;5.87;;;;;;;24.30;58.53;100283.44;123707;1099;104613;-79
2022/06/25 07:24:54;;;;;;;11.23;5.50;;;;;;;24.45;58.35;100281.28;123728;1099;104262;-78
2022/06/25 07:27:26;;;;;;;23.00;14.35;;;;;;;24.55;57.60;100275.65;123907;1099;104311;-78
2022/06/25 07:29:59;;;;;;;16.67;6.70;;;;;;;24.67;57.20;100279.86;123814;1099;104533;-80
2022/06/25 07:32:34;;;;;;;9.65;5.30;;;;;;;24.80;56.67;100271.49;123552;1099;104402;-79
2022/06/25 07:35:09;;;;;;;7.03;4.87;;;;;;;24.84;55.82;100275.83;124303;1099;104373;-78
2022/06/25 07:37:41;;;;;;;7.43;5.10;;;;;;;24.84;55.41;100273.15;123624;1100;104326;-78
2022/06/25 07:40:15;;;;;;;8.80;5.13;;;;;;;24.95;55.64;100281.81;123446;1099;104529;-78
2022/06/25 07:42:48;;;;;;;11.30;5.50;;;;;;;24.89;55.09;100280.16;123605;1102;104470;-77
2022/06/25 07:45:22;;;;;;;7.87;4.90;;;;;;;24.90;55.29;100281.03;123770;1100;104223;-78
2022/06/25 07:47:56;;;;;;;9.03;4.93;;;;;;;24.94;55.34;100285.41;123334;1099;104370;-79
2022/06/25 07:53:21;;;;;;;10.10;4.80;;;;;;;24.92;54.48;100277.40;123577;1099;104293;-78
2022/06/25 07:55:56;;;;;;;9.63;4.80;;;;;;;25.09;54.40;100287.67;123655;1102;104402;-80
2022/06/25 07:58:32;;;;;;;10.57;4.90;;;;;;;25.16;53.81;100274.95;124133;1099;104457;-79
2022/06/25 08:01:04;;;;;;;8.10;4.80;;;;;;;25.18;53.56;100280.28;123606;1099;104408;-79
2022/06/25 08:03:36;;;;;;;9.17;4.40;;;;;;;25.31;53.88;100276.37;123868;1098;104220;-78
2022/06/25 08:06:08;;;;;;;5.67;4.40;;;;;;;25.47;53.61;100274.11;123838;1099;104265;-78
2022/06/25 08:08:39;;;;;;;6.60;4.20;;;;;;;25.61;52.76;100281.76;123689;1099;104179;-77
2022/06/25 08:11:11;;;;;;;11.73;5.00;;;;;;;25.78;52.71;100279.42;123789;1099;104361;-78
2022/06/25 08:14:24;;;;;;;7.37;4.50;;;;;;;26.06;52.04;100270.53;123841;1099;104396;-78
2022/06/25 08:17:10;;;;;;;7.37;4.70;;;;;;;26.33;51.29;100274.15;124239;1098;104249;-76
2022/06/25 08:19:45;;;;;;;4.67;4.00;;;;;;;26.44;50.64;100278.27;124333;1099;104341;-77
2022/06/25 08:22:16;;;;;;;6.83;4.50;;;;;;;26.49;50.97;100270.91;124285;1099;104233;-77
2022/06/25 08:24:48;;;;;;;9.17;4.27;;;;;;;26.50;50.61;100280.75;124109;1099;104360;-77
2022/06/25 08:27:20;;;;;;;8.80;4.05;;;;;;;26.37;50.52;100280.30;124270;1099;104268;-78
2022/06/25 08:29:51;;;;;;;9.67;4.60;;;;;;;26.42;49.70;100281.02;123954;1099;104840;-77
2022/06/25 08:32:23;;;;;;;6.80;4.10;;;;;;;26.38;49.92;100279.34;124302;1098;104239;-79
2022/06/25 08:35:00;;;;;;;7.13;3.83;;;;;;;26.45;49.02;100280.91;125033;1099;104379;-79
2022/06/25 08:37:37;;;;;;;6.05;4.40;;;;;;;26.39;49.23;100281.11;124836;1099;104297;-79
2022/06/25 08:40:12;;;;;;;7.10;3.93;;;;;;;26.29;48.90;100280.55;124222;1099;104341;-77
2022/06/25 08:42:44;;;;;;;7.50;4.40;;;;;;;26.36;48.91;100281.22;124238;1099;104265;-78
2022/06/25 08:45:17;;;;;;;8.07;4.40;;;;;;;26.35;49.00;100285.72;124256;1099;104380;-78
2022/06/25 08:47:50;;;;;;;7.25;4.05;;;;;;;26.26;48.12;100277.95;124249;1099;104695;-78
2022/06/25 08:50:31;;;;;;;10.13;3.90;;;;;;;26.39;48.76;100272.17;124154;1099;104261;-77
2022/06/25 08:53:03;;;;;;;6.37;3.63;;;;;;;26.58;48.51;100267.91;123799;1099;104334;-77
2022/06/25 08:55:38;;;;;;;5.00;4.17;;;;;;;26.73;47.60;100264.72;123693;1099;104300;-78
2022/06/25 08:58:12;;;;;;;9.10;4.00;;;;;;;27.03;47.88;100267.25;123976;1099;104740;-78
2022/06/25 09:00:46;;;;;;;5.53;3.90;;;;;;;27.31;47.45;100266.27;123703;1099;104429;-75
2022/06/25 09:03:19;;;;;;;4.10;3.55;;;;;;;27.46;46.63;100274.70;123776;1099;104267;-79
2022/06/25 09:05:50;;;;;;;8.33;3.93;;;;;;;27.33;46.22;100285.07;123786;1099;104248;-78
2022/06/25 09:08:24;;;;;;;7.37;3.80;;;;;;;27.42;45.97;100274.81;123719;1099;104261;-77
2022/06/25 09:10:58;;;;;;;6.57;4.23;;;;;;;27.61;46.32;100266.94;123695;1099;104217;-77
2022/06/25 09:13:34;;;;;;;7.80;4.07;;;;;;;27.64;45.40;100273.13;123875;1099;104261;-77
2022/06/25 09:16:23;;;;;;;11.10;4.40;;;;;;;27.51;46.18;100268.22;123844;1099;104348;-78
2022/06/25 09:18:56;;;;;;;5.70;3.87;;;;;;;27.55;46.00;100266.27;123702;1098;104287;-77
2022/06/25 09:21:43;;;;;;;5.13;3.70;;;;;;;27.64;45.03;100267.74;123803;1099;104325;-78
2022/06/25 09:24:18;;;;;;;4.30;3.60;;;;;;;27.44;45.00;100272.06;123533;1099;104338;-80
2022/06/25 09:26:58;;;;;;;5.07;3.80;;;;;;;27.18;45.00;100263.13;124161;1099;104245;-81
2022/06/25 09:29:43;;;;;;;7.17;3.80;;;;;;;27.00;45.28;100270.05;124595;1099;104287;-80
2022/06/25 09:32:15;;;;;;;5.20;3.77;;;;;;;27.05;44.83;100269.89;123912;1099;104322;-77
2022/06/25 09:34:48;;;;;;;7.17;3.70;;;;;;;27.16;45.10;100261.42;123751;1099;104256;-79
2022/06/25 09:37:26;;;;;;;6.85;4.05;;;;;;;27.06;44.49;100266.27;123842;1098;104261;-77
2022/06/25 09:40:00;;;;;;;5.70;3.90;;;;;;;27.23;44.77;100257.58;123753;1098;104713;-78
2022/06/25 09:42:33;;;;;;;5.80;3.60;;;;;;;27.37;44.75;100257.09;123491;1099;104411;-78
2022/06/25 09:45:11;;;;;;;6.03;3.70;;;;;;;27.21;44.28;100257.63;123848;1099;104299;-77
2022/06/25 09:47:45;;;;;;;4.75;3.70;;;;;;;27.12;44.73;100260.66;123772;1099;104236;-79
2022/06/25 09:50:21;;;;;;;5.13;3.83;;;;;;;27.05;44.52;100257.33;123701;1099;104280;-77
2022/06/25 09:52:59;;;;;;;11.75;6.00;;;;;;;27.07;43.83;100257.27;123873;1098;104188;-79
2022/06/25 09:55:34;;;;;;;9.50;4.43;;;;;;;27.16;44.75;100259.62;124116;1099;104297;-80
2022/06/25 09:58:08;;;;;;;9.03;3.50;;;;;;;27.26;44.37;100262.84;123786;1099;104454;-79
2022/06/25 10:00:40;;;;;;;5.85;3.58;;;;;;;27.44;44.58;100247.82;123837;1099;104693;-78
2022/06/25 10:03:13;;;;;;;5.63;3.50;;;;;;;27.56;43.84;100255.43;123673;1099;104338;-78
2022/06/25 10:05:47;;;;;;;6.63;3.20;;;;;;;27.69;43.42;100253.16;123679;1099;104232;-79
2022/06/25 10:08:21;;;;;;;6.80;3.77;;;;;;;27.75;42.88;100249.32;123662;1099;104242;-79
2022/06/25 10:10:58;;;;;;;4.57;3.50;;;;;;;27.71;43.54;100247.71;123782;1099;104370;-78
2022/06/25 10:13:30;;;;;;;5.87;3.70;;;;;;;27.71;42.78;100248.58;123728;1099;104261;-78
2022/06/25 10:16:04;;;;;;;6.17;3.70;;;;;;;27.89;43.22;100244.28;123670;1099;104185;-77
2022/06/25 10:18:40;;;;;;;6.77;3.80;;;;;;;28.06;42.87;100240.04;123625;1099;104189;-78
2022/06/25 10:21:14;;;;;;;4.67;3.60;;;;;;;28.14;42.04;100237.89;123860;1097;104261;-79
2022/06/25 10:23:46;;;;;;;7.45;3.60;;;;;;;28.13;40.83;100230.77;124017;1099;104236;-79
2022/06/25 10:26:21;;;;;;;4.17;3.50;;;;;;;28.07;41.29;100236.41;123832;1099;104271;-79
2022/06/25 10:28:53;;;;;;;6.33;3.50;;;;;;;28.17;41.64;100229.67;123761;1099;104252;-78
2022/06/25 10:31:28;;;;;;;4.53;3.57;;;;;;;28.22;41.63;100224.09;123622;1099;104211;-78
2022/06/25 10:34:04;;;;;;;7.47;3.37;;;;;;;28.26;41.11;100229.29;123646;1099;104370;-78
2022/06/25 10:36:49;;;;;;;6.17;3.50;;;;;;;28.13;41.22;100225.38;123809;1099;104271;-78
2022/06/25 10:39:38;;;;;;;5.25;3.80;;;;;;;28.13;41.04;100234.33;124066;1099;104284;-79
2022/06/25 10:45:53;;;;;;;5.80;3.23;;;;;;;28.24;40.21;100236.58;123672;1099;104402;-78
2022/06/25 10:48:25;;;;;;;6.57;3.40;;;;;;;28.38;40.78;100235.14;123547;1099;104156;-78
2022/06/25 10:50:59;;;;;;;6.53;4.00;;;;;;;28.50;40.82;100237.28;123578;1099;104795;-78
2022/06/25 10:53:33;;;;;;;4.00;3.40;;;;;;;28.40;40.80;100226.01;123785;1099;104341;-79
2022/06/25 10:56:18;;;;;;;5.73;3.70;;;;;;;28.13;40.27;100231.63;123958;1099;104309;-78
2022/06/25 10:58:52;;;;;;;4.70;3.77;;;;;;;28.11;40.16;100236.22;123995;1099;104410;-78
2022/06/25 11:01:30;;;;;;;5.07;3.80;;;;;;;28.08;40.22;100227.36;123683;1099;104274;-79
2022/06/25 11:04:06;;;;;;;6.23;3.77;;;;;;;28.05;39.81;100232.88;124053;1099;104639;-78
2022/06/25 11:06:48;;;;;;;6.23;3.93;;;;;;;28.18;39.98;100228.74;123678;1099;104348;-78
2022/06/25 11:09:23;;;;;;;5.07;3.57;;;;;;;28.31;40.21;100219.20;124174;1099;104159;-80
2022/06/25 11:12:15;;;;;;;5.28;3.50;;;;;;;28.49;39.84;100224.75;123963;1099;104318;-80
2022/06/25 11:14:58;;;;;;;7.67;3.60;;;;;;;28.48;39.42;100231.08;123900;1099;104336;-79
2022/06/25 11:17:33;;;;;;;6.43;3.70;;;;;;;28.33;39.13;100240.72;123995;1099;104268;-78
2022/06/25 11:20:17;;;;;;;4.50;3.50;;;;;;;28.23;39.41;100236.64;124082;1098;104258;-79
2022/06/25 11:22:52;;;;;;;5.17;3.50;;;;;;;28.26;39.22;100233.82;124369;1098;104261;-79
2022/06/25 11:32:03;;;;;;;5.77;3.67;;;;;;;28.62;38.14;100225.12;123303;1102;104357;-77
2022/06/25 11:34:38;;;;;;;4.40;3.30;;;;;;;28.76;37.96;100228.08;122899;1105;104431;-79
2022/06/25 11:37:19;;;;;;;6.50;3.70;;;;;;;28.82;37.90;100225.11;123297;1105;104423;-79
2022/06/25 11:39:55;;;;;;;5.80;3.70;;;;;;;28.88;37.92;100226.67;123316;1105;108598;-79
2022/06/25 11:42:27;;;;;;;9.00;4.03;;;;;;;28.82;38.17;100226.94;122995;1105;104412;-79
2022/06/25 11:44:59;;;;;;;7.33;4.00;;;;;;;28.60;38.43;100233.28;122897;1105;104377;-78
2022/06/25 11:47:31;;;;;;;4.83;3.60;;;;;;;28.36;38.38;100221.70;123095;1105;104457;-78
2022/06/25 11:50:09;;;;;;;5.87;3.80;;;;;;;28.35;37.86;100222.64;122617;1105;120030;-79
2022/06/25 11:52:44;;;;;;;5.20;3.83;;;;;;;28.50;38.23;100221.09;122925;1106;104430;-79
2022/06/25 11:55:16;;;;;;;7.93;3.70;;;;;;;28.65;37.91;100215.05;122770;1105;104354;-79